sensor_id;sensor_type;location;lat;lon;timestamp;temperature;humidity
61641;HTU21D;62201;49.966;8.342;2022-08-06T00:02:04;17.85;63.66
61641;HTU21D;62201;49.966;8.342;2022-08-06T00:04:30;17.82;63.69
61641;HTU21D;62201;49.966;8.342;2022-08-06T00:06:55;17.80;63.85
61641;HTU21D;62201;49.966;8.342;2022-08-06T00:09:21;17.77;63.84
61641;HTU21D;62201;49.966;8.342;2022-08-06T00:11:46;17.74;63.98
61641;HTU21D;62201;49.966;8.342;2022-08-06T00:14:11;17.68;64.13
61641;HTU21D;62201;49.966;8.342;2022-08-06T00:16:37;17.67;64.02
61641;HTU21D;62201;49.966;8.342;2022-08-06T00:19:02;17.67;64.05
61641;HTU21D;62201;49.966;8.342;2022-08-06T00:21:28;17.61;64.30
61641;HTU21D;62201;49.966;8.342;2022-08-06T00:23:53;17.58;64.23
61641;HTU21D;62201;49.966;8.342;2022-08-06T00:26:19;17.51;64.34
61641;HTU21D;62201;49.966;8.342;2022-08-06T00:28:44;17.46;64.59
61641;HTU21D;62201;49.966;8.342;2022-08-06T00:31:09;17.44;64.64
61641;HTU21D;62201;49.966;8.342;2022-08-06T00:33:35;17.38;64.86
61641;HTU21D;62201;49.966;8.342;2022-08-06T00:36:01;17.33;64.99
61641;HTU21D;62201;49.966;8.342;2022-08-06T00:38:26;17.34;65.14
61641;HTU21D;62201;49.966;8.342;2022-08-06T00:40:55;17.26;65.40
61641;HTU21D;62201;49.966;8.342;2022-08-06T00:43:20;17.25;65.47
61641;HTU21D;62201;49.966;8.342;2022-08-06T00:45:46;17.22;65.59
61641;HTU21D;62201;49.966;8.342;2022-08-06T00:48:12;17.17;65.70
61641;HTU21D;62201;49.966;8.342;2022-08-06T00:50:38;17.11;65.73
61641;HTU21D;62201;49.966;8.342;2022-08-06T00:53:04;17.09;65.75
61641;HTU21D;62201;49.966;8.342;2022-08-06T00:55:30;17.06;65.78
61641;HTU21D;62201;49.966;8.342;2022-08-06T00:57:55;17.03;65.78
61641;HTU21D;62201;49.966;8.342;2022-08-06T01:00:21;16.98;65.84
61641;HTU21D;62201;49.966;8.342;2022-08-06T01:02:46;16.96;66.01
61641;HTU21D;62201;49.966;8.342;2022-08-06T01:05:12;16.92;65.96
61641;HTU21D;62201;49.966;8.342;2022-08-06T01:07:37;16.91;65.89
61641;HTU21D;62201;49.966;8.342;2022-08-06T01:10:03;16.89;65.99
61641;HTU21D;62201;49.966;8.342;2022-08-06T01:12:29;16.86;65.88
61641;HTU21D;62201;49.966;8.342;2022-08-06T01:14:54;16.84;65.75
61641;HTU21D;62201;49.966;8.342;2022-08-06T01:17:34;16.81;66.04
61641;HTU21D;62201;49.966;8.342;2022-08-06T01:23:02;16.84;65.32
61641;HTU21D;62201;49.966;8.342;2022-08-06T01:28:19;16.86;65.00
61641;HTU21D;62201;49.966;8.342;2022-08-06T01:30:49;16.84;64.70
61641;HTU21D;62201;49.966;8.342;2022-08-06T01:33:52;16.87;64.49
61641;HTU21D;62201;49.966;8.342;2022-08-06T01:36:22;16.80;64.69
61641;HTU21D;62201;49.966;8.342;2022-08-06T01:38:51;16.76;65.06
61641;HTU21D;62201;49.966;8.342;2022-08-06T01:41:21;16.71;65.13
61641;HTU21D;62201;49.966;8.342;2022-08-06T01:44:10;16.65;65.40
61641;HTU21D;62201;49.966;8.342;2022-08-06T01:46:37;16.61;65.55
61641;HTU21D;62201;49.966;8.342;2022-08-06T01:49:06;16.56;65.70
61641;HTU21D;62201;49.966;8.342;2022-08-06T01:51:33;16.52;65.83
61641;HTU21D;62201;49.966;8.342;2022-08-06T01:54:02;16.48;66.00
61641;HTU21D;62201;49.966;8.342;2022-08-06T01:56:29;16.44;66.17
61641;HTU21D;62201;49.966;8.342;2022-08-06T01:58:55;16.43;66.26
61641;HTU21D;62201;49.966;8.342;2022-08-06T02:01:24;16.36;66.55
61641;HTU21D;62201;49.966;8.342;2022-08-06T02:03:53;16.33;66.61
61641;HTU21D;62201;49.966;8.342;2022-08-06T02:06:22;16.28;66.79
61641;HTU21D;62201;49.966;8.342;2022-08-06T02:08:49;16.21;67.06
61641;HTU21D;62201;49.966;8.342;2022-08-06T02:11:15;16.15;67.21
61641;HTU21D;62201;49.966;8.342;2022-08-06T02:13:42;16.07;67.64
61641;HTU21D;62201;49.966;8.342;2022-08-06T02:16:09;16.03;67.52
61641;HTU21D;62201;49.966;8.342;2022-08-06T02:18:37;15.98;67.60
61641;HTU21D;62201;49.966;8.342;2022-08-06T02:21:07;15.95;67.85
61641;HTU21D;62201;49.966;8.342;2022-08-06T02:23:35;15.92;68.23
61641;HTU21D;62201;49.966;8.342;2022-08-06T02:26:02;15.89;68.28
61641;HTU21D;62201;49.966;8.342;2022-08-06T02:28:29;15.85;68.46
61641;HTU21D;62201;49.966;8.342;2022-08-06T02:30:57;15.82;68.69
61641;HTU21D;62201;49.966;8.342;2022-08-06T02:33:24;15.74;68.69
61641;HTU21D;62201;49.966;8.342;2022-08-06T02:36:18;15.69;68.96
61641;HTU21D;62201;49.966;8.342;2022-08-06T02:38:48;15.65;68.93
61641;HTU21D;62201;49.966;8.342;2022-08-06T02:41:24;15.61;69.28
61641;HTU21D;62201;49.966;8.342;2022-08-06T02:44:11;15.57;69.26
61641;HTU21D;62201;49.966;8.342;2022-08-06T02:46:42;15.51;69.42
61641;HTU21D;62201;49.966;8.342;2022-08-06T02:49:28;15.44;69.64
61641;HTU21D;62201;49.966;8.342;2022-08-06T02:52:02;15.43;69.34
61641;HTU21D;62201;49.966;8.342;2022-08-06T02:54:31;15.38;69.41
61641;HTU21D;62201;49.966;8.342;2022-08-06T02:57:02;15.32;69.30
61641;HTU21D;62201;49.966;8.342;2022-08-06T02:59:31;15.30;69.16
61641;HTU21D;62201;49.966;8.342;2022-08-06T03:02:00;15.28;68.99
61641;HTU21D;62201;49.966;8.342;2022-08-06T03:04:28;15.29;68.83
61641;HTU21D;62201;49.966;8.342;2022-08-06T03:06:56;15.27;69.12
61641;HTU21D;62201;49.966;8.342;2022-08-06T03:09:22;15.25;69.11
61641;HTU21D;62201;49.966;8.342;2022-08-06T03:11:49;15.21;69.23
61641;HTU21D;62201;49.966;8.342;2022-08-06T03:14:17;15.18;69.23
61641;HTU21D;62201;49.966;8.342;2022-08-06T03:16:43;15.17;69.19
61641;HTU21D;62201;49.966;8.342;2022-08-06T03:19:10;15.17;68.83
61641;HTU21D;62201;49.966;8.342;2022-08-06T03:21:36;15.17;68.77
61641;HTU21D;62201;49.966;8.342;2022-08-06T03:24:03;15.17;68.55
61641;HTU21D;62201;49.966;8.342;2022-08-06T03:26:30;15.18;68.32
61641;HTU21D;62201;49.966;8.342;2022-08-06T03:28:58;15.16;68.46
61641;HTU21D;62201;49.966;8.342;2022-08-06T03:31:25;15.16;68.54
61641;HTU21D;62201;49.966;8.342;2022-08-06T03:33:52;15.12;68.49
61641;HTU21D;62201;49.966;8.342;2022-08-06T03:36:18;15.12;68.61
61641;HTU21D;62201;49.966;8.342;2022-08-06T03:38:48;15.09;68.59
61641;HTU21D;62201;49.966;8.342;2022-08-06T03:41:15;15.09;68.62
61641;HTU21D;62201;49.966;8.342;2022-08-06T03:43:41;15.08;68.68
61641;HTU21D;62201;49.966;8.342;2022-08-06T03:46:07;15.04;68.66
61641;HTU21D;62201;49.966;8.342;2022-08-06T03:48:38;15.04;68.57
61641;HTU21D;62201;49.966;8.342;2022-08-06T03:51:11;15.02;68.49
61641;HTU21D;62201;49.966;8.342;2022-08-06T03:53:40;15.02;68.49
61641;HTU21D;62201;49.966;8.342;2022-08-06T03:56:07;15.00;68.41
61641;HTU21D;62201;49.966;8.342;2022-08-06T03:58:37;14.95;68.59
61641;HTU21D;62201;49.966;8.342;2022-08-06T04:01:06;14.94;68.64
61641;HTU21D;62201;49.966;8.342;2022-08-06T04:03:34;14.86;68.97
61641;HTU21D;62201;49.966;8.342;2022-08-06T04:06:00;14.84;68.94
61641;HTU21D;62201;49.966;8.342;2022-08-06T04:08:27;14.82;69.10
61641;HTU21D;62201;49.966;8.342;2022-08-06T04:10:52;14.80;69.15
61641;HTU21D;62201;49.966;8.342;2022-08-06T04:13:20;14.79;69.14
61641;HTU21D;62201;49.966;8.342;2022-08-06T04:15:46;14.75;69.16
61641;HTU21D;62201;49.966;8.342;2022-08-06T04:18:18;14.75;69.16
61641;HTU21D;62201;49.966;8.342;2022-08-06T04:20:46;14.75;69.19
61641;HTU21D;62201;49.966;8.342;2022-08-06T04:23:12;14.72;69.12
61641;HTU21D;62201;49.966;8.342;2022-08-06T04:25:55;14.73;68.97
61641;HTU21D;62201;49.966;8.342;2022-08-06T04:28:24;14.71;69.00
61641;HTU21D;62201;49.966;8.342;2022-08-06T04:30:50;14.74;68.83
61641;HTU21D;62201;49.966;8.342;2022-08-06T04:33:19;14.75;68.64
61641;HTU21D;62201;49.966;8.342;2022-08-06T04:35:45;14.77;68.58
61641;HTU21D;62201;49.966;8.342;2022-08-06T04:38:11;14.74;68.68
61641;HTU21D;62201;49.966;8.342;2022-08-06T04:40:38;14.78;68.39
61641;HTU21D;62201;49.966;8.342;2022-08-06T04:43:06;14.79;68.39
61641;HTU21D;62201;49.966;8.342;2022-08-06T04:45:33;14.80;68.31
61641;HTU21D;62201;49.966;8.342;2022-08-06T04:47:59;14.81;67.99
61641;HTU21D;62201;49.966;8.342;2022-08-06T04:50:25;14.82;67.75
61641;HTU21D;62201;49.966;8.342;2022-08-06T04:52:51;14.84;68.01
61641;HTU21D;62201;49.966;8.342;2022-08-06T04:55:20;14.85;67.84
61641;HTU21D;62201;49.966;8.342;2022-08-06T04:57:45;14.91;67.91
61641;HTU21D;62201;49.966;8.342;2022-08-06T05:00:12;14.96;67.41
61641;HTU21D;62201;49.966;8.342;2022-08-06T05:02:37;15.04;67.22
61641;HTU21D;62201;49.966;8.342;2022-08-06T05:05:04;15.13;67.09
61641;HTU21D;62201;49.966;8.342;2022-08-06T05:07:33;15.24;66.59
61641;HTU21D;62201;49.966;8.342;2022-08-06T05:10:00;15.34;66.30
61641;HTU21D;62201;49.966;8.342;2022-08-06T05:12:45;15.49;64.55
61641;HTU21D;62201;49.966;8.342;2022-08-06T05:15:20;15.60;65.17
61641;HTU21D;62201;49.966;8.342;2022-08-06T05:18:14;15.77;64.24
61641;HTU21D;62201;49.966;8.342;2022-08-06T05:20:43;15.87;64.31
61641;HTU21D;62201;49.966;8.342;2022-08-06T05:23:24;16.04;63.95
61641;HTU21D;62201;49.966;8.342;2022-08-06T05:25:50;16.29;63.59
61641;HTU21D;62201;49.966;8.342;2022-08-06T05:28:16;16.42;62.40
61641;HTU21D;62201;49.966;8.342;2022-08-06T05:30:47;16.48;62.05
61641;HTU21D;62201;49.966;8.342;2022-08-06T05:33:32;16.75;61.44
61641;HTU21D;62201;49.966;8.342;2022-08-06T05:35:59;16.95;60.39
61641;HTU21D;62201;49.966;8.342;2022-08-06T05:38:24;17.05;59.94
61641;HTU21D;62201;49.966;8.342;2022-08-06T05:40:52;17.16;59.79
61641;HTU21D;62201;49.966;8.342;2022-08-06T05:43:18;17.05;59.93
61641;HTU21D;62201;49.966;8.342;2022-08-06T05:45:44;17.28;59.86
61641;HTU21D;62201;49.966;8.342;2022-08-06T05:48:12;17.50;59.54
61641;HTU21D;62201;49.966;8.342;2022-08-06T05:50:43;17.63;58.36
61641;HTU21D;62201;49.966;8.342;2022-08-06T05:53:16;17.83;58.38
61641;HTU21D;62201;49.966;8.342;2022-08-06T05:55:51;18.04;57.39
61641;HTU21D;62201;49.966;8.342;2022-08-06T05:58:29;18.04;57.48
61641;HTU21D;62201;49.966;8.342;2022-08-06T06:00:58;18.02;57.75
61641;HTU21D;62201;49.966;8.342;2022-08-06T06:03:25;18.22;56.92
61641;HTU21D;62201;49.966;8.342;2022-08-06T06:05:51;18.09;56.46
61641;HTU21D;62201;49.966;8.342;2022-08-06T06:08:18;18.11;56.81
61641;HTU21D;62201;49.966;8.342;2022-08-06T06:10:45;18.23;56.77
61641;HTU21D;62201;49.966;8.342;2022-08-06T06:13:11;18.22;56.48
61641;HTU21D;62201;49.966;8.342;2022-08-06T06:15:42;18.28;56.48
61641;HTU21D;62201;49.966;8.342;2022-08-06T06:20:58;18.66;55.36
61641;HTU21D;62201;49.966;8.342;2022-08-06T06:23:40;18.98;54.63
61641;HTU21D;62201;49.966;8.342;2022-08-06T06:26:37;18.94;54.87
61641;HTU21D;62201;49.966;8.342;2022-08-06T06:29:11;19.09;54.09
61641;HTU21D;62201;49.966;8.342;2022-08-06T06:37:01;19.68;53.02
61641;HTU21D;62201;49.966;8.342;2022-08-06T06:39:48;19.73;52.85
61641;HTU21D;62201;49.966;8.342;2022-08-06T06:42:25;19.84;52.94
61641;HTU21D;62201;49.966;8.342;2022-08-06T06:47:47;19.84;52.94
61641;HTU21D;62201;49.966;8.342;2022-08-06T06:50:21;19.94;52.61
61641;HTU21D;62201;49.966;8.342;2022-08-06T06:52:49;19.92;52.42
61641;HTU21D;62201;49.966;8.342;2022-08-06T06:55:44;19.92;52.25
61641;HTU21D;62201;49.966;8.342;2022-08-06T06:58:25;19.73;52.53
61641;HTU21D;62201;49.966;8.342;2022-08-06T07:00:53;20.03;52.16
61641;HTU21D;62201;49.966;8.342;2022-08-06T07:03:20;20.09;51.79
61641;HTU21D;62201;49.966;8.342;2022-08-06T07:05:49;19.80;52.47
61641;HTU21D;62201;49.966;8.342;2022-08-06T07:08:17;19.83;52.35
61641;HTU21D;62201;49.966;8.342;2022-08-06T07:10:43;19.85;52.15
61641;HTU21D;62201;49.966;8.342;2022-08-06T07:13:10;19.98;52.22
61641;HTU21D;62201;49.966;8.342;2022-08-06T07:15:37;20.28;51.95
61641;HTU21D;62201;49.966;8.342;2022-08-06T07:18:03;20.49;51.10
61641;HTU21D;62201;49.966;8.342;2022-08-06T07:20:30;20.21;51.41
61641;HTU21D;62201;49.966;8.342;2022-08-06T07:23:05;20.35;51.40
61641;HTU21D;62201;49.966;8.342;2022-08-06T07:25:35;20.46;50.36
61641;HTU21D;62201;49.966;8.342;2022-08-06T07:28:02;20.42;50.47
61641;HTU21D;62201;49.966;8.342;2022-08-06T07:30:29;20.45;50.05
61641;HTU21D;62201;49.966;8.342;2022-08-06T07:32:55;20.57;49.61
61641;HTU21D;62201;49.966;8.342;2022-08-06T07:35:20;20.49;49.85
61641;HTU21D;62201;49.966;8.342;2022-08-06T07:37:53;20.41;49.57
61641;HTU21D;62201;49.966;8.342;2022-08-06T07:40:28;20.57;49.45
61641;HTU21D;62201;49.966;8.342;2022-08-06T07:43:00;20.66;48.76
61641;HTU21D;62201;49.966;8.342;2022-08-06T07:45:29;20.63;48.22
61641;HTU21D;62201;49.966;8.342;2022-08-06T07:47:56;20.78;48.01
61641;HTU21D;62201;49.966;8.342;2022-08-06T07:50:23;20.92;47.67
61641;HTU21D;62201;49.966;8.342;2022-08-06T07:52:51;21.19;47.00
61641;HTU21D;62201;49.966;8.342;2022-08-06T07:55:17;21.30;46.88
61641;HTU21D;62201;49.966;8.342;2022-08-06T07:57:43;21.24;46.31
61641;HTU21D;62201;49.966;8.342;2022-08-06T08:00:09;21.45;45.29
61641;HTU21D;62201;49.966;8.342;2022-08-06T08:02:36;21.25;46.29
61641;HTU21D;62201;49.966;8.342;2022-08-06T08:05:02;21.10;45.66
61641;HTU21D;62201;49.966;8.342;2022-08-06T08:07:46;21.17;44.93
61641;HTU21D;62201;49.966;8.342;2022-08-06T08:10:12;21.27;44.69
61641;HTU21D;62201;49.966;8.342;2022-08-06T08:12:38;21.36;45.46
61641;HTU21D;62201;49.966;8.342;2022-08-06T08:15:05;21.38;45.09
61641;HTU21D;62201;49.966;8.342;2022-08-06T08:17:31;21.93;44.01
61641;HTU21D;62201;49.966;8.342;2022-08-06T08:20:02;22.18;43.32
61641;HTU21D;62201;49.966;8.342;2022-08-06T08:22:28;21.91;43.52
61641;HTU21D;62201;49.966;8.342;2022-08-06T08:24:54;21.88;43.17
61641;HTU21D;62201;49.966;8.342;2022-08-06T08:27:19;21.73;42.45
61641;HTU21D;62201;49.966;8.342;2022-08-06T08:29:46;21.50;42.98
61641;HTU21D;62201;49.966;8.342;2022-08-06T08:32:11;21.54;42.65
61641;HTU21D;62201;49.966;8.342;2022-08-06T08:34:37;21.44;43.29
61641;HTU21D;62201;49.966;8.342;2022-08-06T08:37:03;21.57;43.02
61641;HTU21D;62201;49.966;8.342;2022-08-06T08:39:29;21.75;42.50
61641;HTU21D;62201;49.966;8.342;2022-08-06T08:42:02;21.98;41.32
61641;HTU21D;62201;49.966;8.342;2022-08-06T08:44:32;22.14;41.70
61641;HTU21D;62201;49.966;8.342;2022-08-06T08:46:59;22.21;41.35
61641;HTU21D;62201;49.966;8.342;2022-08-06T08:52:00;22.33;40.70
61641;HTU21D;62201;49.966;8.342;2022-08-06T08:54:26;22.12;41.37
61641;HTU21D;62201;49.966;8.342;2022-08-06T08:56:54;22.06;42.16
61641;HTU21D;62201;49.966;8.342;2022-08-06T08:59:20;22.32;42.03
61641;HTU21D;62201;49.966;8.342;2022-08-06T09:01:47;22.58;40.49
61641;HTU21D;62201;49.966;8.342;2022-08-06T09:04:12;22.88;40.80
61641;HTU21D;62201;49.966;8.342;2022-08-06T09:06:38;22.75;40.29
61641;HTU21D;62201;49.966;8.342;2022-08-06T09:09:05;22.51;40.33
61641;HTU21D;62201;49.966;8.342;2022-08-06T09:11:32;22.46;40.97
61641;HTU21D;62201;49.966;8.342;2022-08-06T09:14:06;22.44;41.21
61641;HTU21D;62201;49.966;8.342;2022-08-06T09:16:33;22.65;40.62
61641;HTU21D;62201;49.966;8.342;2022-08-06T09:18:59;22.76;40.91
61641;HTU21D;62201;49.966;8.342;2022-08-06T09:21:25;22.78;40.61
61641;HTU21D;62201;49.966;8.342;2022-08-06T09:23:51;22.50;41.13
61641;HTU21D;62201;49.966;8.342;2022-08-06T09:26:16;22.47;41.03
61641;HTU21D;62201;49.966;8.342;2022-08-06T09:28:42;22.92;40.22
61641;HTU21D;62201;49.966;8.342;2022-08-06T09:31:13;23.10;40.28
61641;HTU21D;62201;49.966;8.342;2022-08-06T09:33:42;23.27;39.73
61641;HTU21D;62201;49.966;8.342;2022-08-06T09:36:10;23.64;38.71
61641;HTU21D;62201;49.966;8.342;2022-08-06T09:38:46;23.66;38.24
61641;HTU21D;62201;49.966;8.342;2022-08-06T09:41:13;23.41;38.28
61641;HTU21D;62201;49.966;8.342;2022-08-06T09:43:39;23.21;38.58
61641;HTU21D;62201;49.966;8.342;2022-08-06T09:46:05;23.11;37.71
61641;HTU21D;62201;49.966;8.342;2022-08-06T09:48:31;23.15;38.18
61641;HTU21D;62201;49.966;8.342;2022-08-06T09:50:57;23.26;37.73
61641;HTU21D;62201;49.966;8.342;2022-08-06T09:53:23;23.49;36.07
61641;HTU21D;62201;49.966;8.342;2022-08-06T09:55:49;23.47;36.50
61641;HTU21D;62201;49.966;8.342;2022-08-06T09:58:35;23.72;36.08
61641;HTU21D;62201;49.966;8.342;2022-08-06T10:01:16;22.86;37.59
61641;HTU21D;62201;49.966;8.342;2022-08-06T10:03:41;22.68;38.41
61641;HTU21D;62201;49.966;8.342;2022-08-06T10:06:15;22.76;37.91
61641;HTU21D;62201;49.966;8.342;2022-08-06T10:08:42;23.31;37.52
61641;HTU21D;62201;49.966;8.342;2022-08-06T10:11:08;23.57;36.84
61641;HTU21D;62201;49.966;8.342;2022-08-06T10:13:35;23.50;36.14
61641;HTU21D;62201;49.966;8.342;2022-08-06T10:16:14;23.69;35.96
61641;HTU21D;62201;49.966;8.342;2022-08-06T10:18:42;24.12;35.69
61641;HTU21D;62201;49.966;8.342;2022-08-06T10:21:12;24.29;34.74
61641;HTU21D;62201;49.966;8.342;2022-08-06T10:23:40;24.50;34.62
61641;HTU21D;62201;49.966;8.342;2022-08-06T10:26:10;24.38;35.00
61641;HTU21D;62201;49.966;8.342;2022-08-06T10:28:38;24.38;34.31
61641;HTU21D;62201;49.966;8.342;2022-08-06T10:31:06;24.15;35.18
61641;HTU21D;62201;49.966;8.342;2022-08-06T10:33:40;24.39;34.61
61641;HTU21D;62201;49.966;8.342;2022-08-06T10:36:14;24.56;33.84
61641;HTU21D;62201;49.966;8.342;2022-08-06T10:38:42;24.74;33.77
61641;HTU21D;62201;49.966;8.342;2022-08-06T10:41:10;25.25;32.29
61641;HTU21D;62201;49.966;8.342;2022-08-06T10:43:37;25.09;32.48
61641;HTU21D;62201;49.966;8.342;2022-08-06T10:46:08;24.87;32.59
61641;HTU21D;62201;49.966;8.342;2022-08-06T10:48:36;24.80;33.02
61641;HTU21D;62201;49.966;8.342;2022-08-06T10:51:03;24.35;33.73
61641;HTU21D;62201;49.966;8.342;2022-08-06T10:53:34;24.64;32.96
61641;HTU21D;62201;49.966;8.342;2022-08-06T10:56:01;24.76;32.45
61641;HTU21D;62201;49.966;8.342;2022-08-06T10:58:29;24.91;32.19
61641;HTU21D;62201;49.966;8.342;2022-08-06T11:00:57;24.98;32.60
61641;HTU21D;62201;49.966;8.342;2022-08-06T11:06:48;25.08;31.27
61641;HTU21D;62201;49.966;8.342;2022-08-06T11:10:02;24.94;32.18
61641;HTU21D;62201;49.966;8.342;2022-08-06T11:12:56;25.29;30.75
61641;HTU21D;62201;49.966;8.342;2022-08-06T11:15:23;25.21;30.87
61641;HTU21D;62201;49.966;8.342;2022-08-06T11:17:50;25.21;29.65
61641;HTU21D;62201;49.966;8.342;2022-08-06T11:22:58;25.31;30.95
61641;HTU21D;62201;49.966;8.342;2022-08-06T11:28:19;25.54;30.10
61641;HTU21D;62201;49.966;8.342;2022-08-06T11:30:50;25.53;29.35
61641;HTU21D;62201;49.966;8.342;2022-08-06T11:36:01;25.01;30.34
61641;HTU21D;62201;49.966;8.342;2022-08-06T11:41:21;25.47;29.29
61641;HTU21D;62201;49.966;8.342;2022-08-06T11:46:25;26.39;27.84
61641;HTU21D;62201;49.966;8.342;2022-08-06T11:51:55;25.69;28.29
61641;HTU21D;62201;49.966;8.342;2022-08-06T12:08:30;26.83;25.33
61641;HTU21D;62201;49.966;8.342;2022-08-06T12:11:22;26.62;25.91
61641;HTU21D;62201;49.966;8.342;2022-08-06T12:13:52;26.32;26.39
61641;HTU21D;62201;49.966;8.342;2022-08-06T12:16:47;26.35;26.55
61641;HTU21D;62201;49.966;8.342;2022-08-06T12:19:14;26.32;25.85
61641;HTU21D;62201;49.966;8.342;2022-08-06T12:21:40;25.71;26.99
61641;HTU21D;62201;49.966;8.342;2022-08-06T12:24:06;25.94;27.13
61641;HTU21D;62201;49.966;8.342;2022-08-06T12:26:31;26.35;26.03
61641;HTU21D;62201;49.966;8.342;2022-08-06T12:29:01;25.69;27.00
61641;HTU21D;62201;49.966;8.342;2022-08-06T12:31:30;25.80;26.71
61641;HTU21D;62201;49.966;8.342;2022-08-06T12:33:55;25.82;26.75
61641;HTU21D;62201;49.966;8.342;2022-08-06T12:36:25;26.26;26.85
61641;HTU21D;62201;49.966;8.342;2022-08-06T12:38:55;26.24;26.88
61641;HTU21D;62201;49.966;8.342;2022-08-06T12:41:21;26.04;26.41
61641;HTU21D;62201;49.966;8.342;2022-08-06T12:43:47;26.01;26.80
61641;HTU21D;62201;49.966;8.342;2022-08-06T12:46:12;25.83;25.60
61641;HTU21D;62201;49.966;8.342;2022-08-06T12:48:45;26.02;25.30
61641;HTU21D;62201;49.966;8.342;2022-08-06T12:51:12;25.77;25.80
61641;HTU21D;62201;49.966;8.342;2022-08-06T12:56:12;25.87;25.31
61641;HTU21D;62201;49.966;8.342;2022-08-06T12:58:39;25.97;26.21
61641;HTU21D;62201;49.966;8.342;2022-08-06T13:01:06;25.88;24.92
61641;HTU21D;62201;49.966;8.342;2022-08-06T13:03:34;26.12;24.96
61641;HTU21D;62201;49.966;8.342;2022-08-06T13:06:01;26.80;23.99
61641;HTU21D;62201;49.966;8.342;2022-08-06T13:08:28;26.48;24.76
61641;HTU21D;62201;49.966;8.342;2022-08-06T13:10:56;25.93;25.65
61641;HTU21D;62201;49.966;8.342;2022-08-06T13:13:41;25.99;26.22
61641;HTU21D;62201;49.966;8.342;2022-08-06T13:16:09;26.28;24.96
61641;HTU21D;62201;49.966;8.342;2022-08-06T13:18:36;26.43;24.67
61641;HTU21D;62201;49.966;8.342;2022-08-06T13:21:02;26.50;24.49
61641;HTU21D;62201;49.966;8.342;2022-08-06T13:23:37;26.42;23.64
61641;HTU21D;62201;49.966;8.342;2022-08-06T13:26:46;26.40;23.72
61641;HTU21D;62201;49.966;8.342;2022-08-06T13:29:15;26.06;23.78
61641;HTU21D;62201;49.966;8.342;2022-08-06T13:31:42;26.12;24.05
61641;HTU21D;62201;49.966;8.342;2022-08-06T13:34:10;26.31;23.75
61641;HTU21D;62201;49.966;8.342;2022-08-06T13:36:37;25.96;23.72
61641;HTU21D;62201;49.966;8.342;2022-08-06T13:39:23;26.11;23.34
61641;HTU21D;62201;49.966;8.342;2022-08-06T13:42:08;26.27;22.65
61641;HTU21D;62201;49.966;8.342;2022-08-06T13:44:38;26.51;22.51
61641;HTU21D;62201;49.966;8.342;2022-08-06T13:47:05;26.57;22.92
61641;HTU21D;62201;49.966;8.342;2022-08-06T13:49:31;26.73;22.56
61641;HTU21D;62201;49.966;8.342;2022-08-06T13:51:57;26.42;22.20
61641;HTU21D;62201;49.966;8.342;2022-08-06T13:54:24;26.32;22.62
61641;HTU21D;62201;49.966;8.342;2022-08-06T13:56:50;26.51;21.98
61641;HTU21D;62201;49.966;8.342;2022-08-06T13:59:16;26.54;22.61
61641;HTU21D;62201;49.966;8.342;2022-08-06T14:01:42;26.62;22.99
61641;HTU21D;62201;49.966;8.342;2022-08-06T14:04:08;26.61;23.05
61641;HTU21D;62201;49.966;8.342;2022-08-06T14:06:33;26.41;23.34
61641;HTU21D;62201;49.966;8.342;2022-08-06T14:08:58;26.51;23.05
61641;HTU21D;62201;49.966;8.342;2022-08-06T14:11:27;26.87;23.69
61641;HTU21D;62201;49.966;8.342;2022-08-06T14:13:52;27.04;23.27
61641;HTU21D;62201;49.966;8.342;2022-08-06T14:16:18;26.72;23.44
61641;HTU21D;62201;49.966;8.342;2022-08-06T14:18:43;26.79;23.29
61641;HTU21D;62201;49.966;8.342;2022-08-06T14:21:08;26.89;23.40
61641;HTU21D;62201;49.966;8.342;2022-08-06T14:23:34;26.78;23.53
61641;HTU21D;62201;49.966;8.342;2022-08-06T14:25:59;26.62;23.56
61641;HTU21D;62201;49.966;8.342;2022-08-06T14:28:26;26.53;24.54
61641;HTU21D;62201;49.966;8.342;2022-08-06T14:30:52;26.51;23.62
61641;HTU21D;62201;49.966;8.342;2022-08-06T14:33:17;26.66;23.79
61641;HTU21D;62201;49.966;8.342;2022-08-06T14:35:43;26.62;23.55
61641;HTU21D;62201;49.966;8.342;2022-08-06T14:38:08;26.54;23.24
61641;HTU21D;62201;49.966;8.342;2022-08-06T14:40:36;26.22;23.56
61641;HTU21D;62201;49.966;8.342;2022-08-06T14:43:20;26.46;23.44
61641;HTU21D;62201;49.966;8.342;2022-08-06T14:46:04;26.07;23.40
61641;HTU21D;62201;49.966;8.342;2022-08-06T14:48:29;26.15;23.72
61641;HTU21D;62201;49.966;8.342;2022-08-06T14:50:55;26.19;23.98
61641;HTU21D;62201;49.966;8.342;2022-08-06T14:53:20;26.43;23.56
61641;HTU21D;62201;49.966;8.342;2022-08-06T14:55:45;26.32;23.56
61641;HTU21D;62201;49.966;8.342;2022-08-06T14:58:11;26.15;23.94
61641;HTU21D;62201;49.966;8.342;2022-08-06T15:00:36;26.13;23.87
61641;HTU21D;62201;49.966;8.342;2022-08-06T15:03:02;25.97;23.74
61641;HTU21D;62201;49.966;8.342;2022-08-06T15:05:27;25.99;23.53
61641;HTU21D;62201;49.966;8.342;2022-08-06T15:07:52;25.61;23.74
61641;HTU21D;62201;49.966;8.342;2022-08-06T15:10:18;25.49;24.33
61641;HTU21D;62201;49.966;8.342;2022-08-06T15:12:43;25.46;24.64
61641;HTU21D;62201;49.966;8.342;2022-08-06T15:15:09;25.45;24.72
61641;HTU21D;62201;49.966;8.342;2022-08-06T15:17:35;25.32;25.34
61641;HTU21D;62201;49.966;8.342;2022-08-06T15:20:00;25.23;25.59
61641;HTU21D;62201;49.966;8.342;2022-08-06T15:22:26;25.17;25.54
61641;HTU21D;62201;49.966;8.342;2022-08-06T15:24:51;25.06;25.27
61641;HTU21D;62201;49.966;8.342;2022-08-06T15:27:16;24.98;25.33
61641;HTU21D;62201;49.966;8.342;2022-08-06T15:29:48;24.86;25.40
61641;HTU21D;62201;49.966;8.342;2022-08-06T15:32:14;24.93;25.19
61641;HTU21D;62201;49.966;8.342;2022-08-06T15:34:40;24.79;25.26
61641;HTU21D;62201;49.966;8.342;2022-08-06T15:37:06;24.76;25.32
61641;HTU21D;62201;49.966;8.342;2022-08-06T15:39:33;24.84;25.69
61641;HTU21D;62201;49.966;8.342;2022-08-06T15:41:59;24.86;24.38
61641;HTU21D;62201;49.966;8.342;2022-08-06T15:44:24;24.90;25.00
61641;HTU21D;62201;49.966;8.342;2022-08-06T15:46:50;24.84;24.84
61641;HTU21D;62201;49.966;8.342;2022-08-06T15:49:15;24.69;25.44
61641;HTU21D;62201;49.966;8.342;2022-08-06T15:51:41;24.80;25.23
61641;HTU21D;62201;49.966;8.342;2022-08-06T15:54:06;24.79;25.04
61641;HTU21D;62201;49.966;8.342;2022-08-06T15:56:32;24.82;24.26
61641;HTU21D;62201;49.966;8.342;2022-08-06T15:58:58;24.85;23.43
61641;HTU21D;62201;49.966;8.342;2022-08-06T16:01:23;24.95;23.86
61641;HTU21D;62201;49.966;8.342;2022-08-06T16:03:49;24.85;24.04
61641;HTU21D;62201;49.966;8.342;2022-08-06T16:06:14;24.79;24.63
61641;HTU21D;62201;49.966;8.342;2022-08-06T16:08:40;24.61;24.20
61641;HTU21D;62201;49.966;8.342;2022-08-06T16:11:05;24.69;24.09
61641;HTU21D;62201;49.966;8.342;2022-08-06T16:13:31;24.63;23.90
61641;HTU21D;62201;49.966;8.342;2022-08-06T16:15:56;24.70;23.14
61641;HTU21D;62201;49.966;8.342;2022-08-06T16:18:22;24.50;22.42
61641;HTU21D;62201;49.966;8.342;2022-08-06T16:20:48;24.46;22.15
61641;HTU21D;62201;49.966;8.342;2022-08-06T16:23:16;24.55;21.79